sensor_id;sensor_type;location;lat;lon;timestamp;P1;durP1;ratioP1;P2;durP2;ratioP2
22332;SDS011;11334;36.986;-121.936;2023-01-25T00:02:25;8.65;;;3.00;;
22332;SDS011;11334;36.986;-121.936;2023-01-25T00:04:51;12.82;;;3.92;;
22332;SDS011;11334;36.986;-121.936;2023-01-25T00:07:18;14.48;;;3.70;;
22332;SDS011;11334;36.986;-121.936;2023-01-25T00:09:44;17.33;;;4.60;;
22332;SDS011;11334;36.986;-121.936;2023-01-25T00:12:10;12.25;;;4.25;;
22332;SDS011;11334;36.986;-121.936;2023-01-25T00:14:36;9.80;;;3.90;;
22332;SDS011;11334;36.986;-121.936;2023-01-25T00:17:02;9.75;;;3.45;;
22332;SDS011;11334;36.986;-121.936;2023-01-25T00:19:29;13.75;;;3.70;;
22332;SDS011;11334;36.986;-121.936;2023-01-25T00:21:55;11.57;;;3.45;;
22332;SDS011;11334;36.986;-121.936;2023-01-25T00:24:21;10.90;;;3.35;;
22332;SDS011;11334;36.986;-121.936;2023-01-25T00:26:49;10.25;;;3.50;;
22332;SDS011;11334;36.986;-121.936;2023-01-25T00:29:16;9.85;;;3.55;;
22332;SDS011;11334;36.986;-121.936;2023-01-25T00:31:49;11.52;;;3.60;;
22332;SDS011;11334;36.986;-121.936;2023-01-25T00:36:51;17.13;;;4.20;;
22332;SDS011;11334;36.986;-121.936;2023-01-25T00:39:19;13.82;;;4.68;;
22332;SDS011;11334;36.986;-121.936;2023-01-25T00:41:46;13.38;;;4.05;;
22332;SDS011;11334;36.986;-121.936;2023-01-25T00:44:12;6.95;;;3.65;;
22332;SDS011;11334;36.986;-121.936;2023-01-25T00:46:38;11.23;;;3.80;;
22332;SDS011;11334;36.986;-121.936;2023-01-25T00:49:05;9.40;;;3.80;;
22332;SDS011;11334;36.986;-121.936;2023-01-25T00:51:31;9.30;;;3.55;;
22332;SDS011;11334;36.986;-121.936;2023-01-25T00:53:58;15.02;;;3.80;;
22332;SDS011;11334;36.986;-121.936;2023-01-25T00:56:24;9.38;;;3.55;;
22332;SDS011;11334;36.986;-121.936;2023-01-25T00:58:50;14.32;;;4.63;;
22332;SDS011;11334;36.986;-121.936;2023-01-25T01:01:16;12.77;;;3.88;;
22332;SDS011;11334;36.986;-121.936;2023-01-25T01:03:43;16.63;;;4.65;;
22332;SDS011;11334;36.986;-121.936;2023-01-25T01:06:10;14.73;;;5.70;;
22332;SDS011;11334;36.986;-121.936;2023-01-25T01:08:40;16.73;;;5.68;;
22332;SDS011;11334;36.986;-121.936;2023-01-25T01:11:08;20.90;;;6.53;;
22332;SDS011;11334;36.986;-121.936;2023-01-25T01:13:36;20.75;;;6.47;;
22332;SDS011;11334;36.986;-121.936;2023-01-25T01:16:04;17.77;;;6.00;;
22332;SDS011;11334;36.986;-121.936;2023-01-25T01:18:37;21.42;;;5.82;;
22332;SDS011;11334;36.986;-121.936;2023-01-25T01:21:05;23.58;;;6.18;;
22332;SDS011;11334;36.986;-121.936;2023-01-25T01:23:33;17.63;;;6.03;;
22332;SDS011;11334;36.986;-121.936;2023-01-25T01:26:02;16.92;;;5.55;;
22332;SDS011;11334;36.986;-121.936;2023-01-25T01:28:34;14.48;;;5.70;;
22332;SDS011;11334;36.986;-121.936;2023-01-25T01:31:13;13.90;;;5.18;;
22332;SDS011;11334;36.986;-121.936;2023-01-25T01:33:41;12.30;;;5.32;;
22332;SDS011;11334;36.986;-121.936;2023-01-25T01:36:11;12.00;;;4.85;;
22332;SDS011;11334;36.986;-121.936;2023-01-25T01:38:41;12.10;;;4.20;;
22332;SDS011;11334;36.986;-121.936;2023-01-25T01:41:08;7.85;;;4.10;;
22332;SDS011;11334;36.986;-121.936;2023-01-25T01:43:36;10.52;;;5.70;;
22332;SDS011;11334;36.986;-121.936;2023-01-25T01:46:10;10.00;;;4.40;;
22332;SDS011;11334;36.986;-121.936;2023-01-25T01:48:51;7.85;;;3.38;;
22332;SDS011;11334;36.986;-121.936;2023-01-25T01:54:29;5.70;;;3.08;;
22332;SDS011;11334;36.986;-121.936;2023-01-25T01:57:05;5.75;;;3.40;;
22332;SDS011;11334;36.986;-121.936;2023-01-25T01:59:33;8.63;;;3.95;;
22332;SDS011;11334;36.986;-121.936;2023-01-25T02:02:06;10.77;;;3.80;;
22332;SDS011;11334;36.986;-121.936;2023-01-25T02:04:33;9.02;;;3.53;;
22332;SDS011;11334;36.986;-121.936;2023-01-25T02:07:16;12.10;;;3.67;;
22332;SDS011;11334;36.986;-121.936;2023-01-25T02:09:47;6.78;;;4.18;;
22332;SDS011;11334;36.986;-121.936;2023-01-25T02:12:15;11.18;;;3.10;;
22332;SDS011;11334;36.986;-121.936;2023-01-25T02:14:49;7.22;;;2.97;;
22332;SDS011;11334;36.986;-121.936;2023-01-25T02:17:28;5.82;;;3.13;;
22332;SDS011;11334;36.986;-121.936;2023-01-25T02:22:39;7.97;;;3.50;;
22332;SDS011;11334;36.986;-121.936;2023-01-25T02:25:09;6.57;;;3.20;;
22332;SDS011;11334;36.986;-121.936;2023-01-25T02:27:38;10.18;;;3.22;;
22332;SDS011;11334;36.986;-121.936;2023-01-25T02:30:10;10.13;;;3.60;;
22332;SDS011;11334;36.986;-121.936;2023-01-25T02:32:37;6.78;;;3.00;;
22332;SDS011;11334;36.986;-121.936;2023-01-25T02:35:03;8.85;;;3.38;;
22332;SDS011;11334;36.986;-121.936;2023-01-25T02:37:30;5.57;;;3.47;;
22332;SDS011;11334;36.986;-121.936;2023-01-25T02:39:56;6.15;;;3.22;;
22332;SDS011;11334;36.986;-121.936;2023-01-25T02:42:22;5.13;;;3.17;;
22332;SDS011;11334;36.986;-121.936;2023-01-25T02:44:49;7.00;;;3.30;;
22332;SDS011;11334;36.986;-121.936;2023-01-25T02:47:16;8.55;;;3.30;;
22332;SDS011;11334;36.986;-121.936;2023-01-25T02:49:42;8.50;;;3.80;;
22332;SDS011;11334;36.986;-121.936;2023-01-25T02:52:08;10.27;;;3.40;;
22332;SDS011;11334;36.986;-121.936;2023-01-25T02:54:34;7.05;;;3.45;;
22332;SDS011;11334;36.986;-121.936;2023-01-25T02:57:01;8.73;;;4.30;;
22332;SDS011;11334;36.986;-121.936;2023-01-25T02:59:27;8.73;;;5.65;;
22332;SDS011;11334;36.986;-121.936;2023-01-25T03:01:54;9.55;;;4.82;;
22332;SDS011;11334;36.986;-121.936;2023-01-25T03:04:20;7.68;;;4.57;;
22332;SDS011;11334;36.986;-121.936;2023-01-25T03:06:46;9.70;;;4.75;;
22332;SDS011;11334;36.986;-121.936;2023-01-25T03:09:12;7.78;;;4.30;;
22332;SDS011;11334;36.986;-121.936;2023-01-25T03:11:39;8.75;;;4.82;;
22332;SDS011;11334;36.986;-121.936;2023-01-25T03:14:05;8.98;;;4.55;;
22332;SDS011;11334;36.986;-121.936;2023-01-25T03:16:31;6.63;;;4.63;;
22332;SDS011;11334;36.986;-121.936;2023-01-25T03:18:58;7.13;;;3.90;;
22332;SDS011;11334;36.986;-121.936;2023-01-25T03:21:25;8.50;;;3.60;;
22332;SDS011;11334;36.986;-121.936;2023-01-25T03:23:56;6.10;;;3.58;;
22332;SDS011;11334;36.986;-121.936;2023-01-25T03:26:26;8.52;;;3.72;;
22332;SDS011;11334;36.986;-121.936;2023-01-25T03:28:53;7.10;;;4.45;;
22332;SDS011;11334;36.986;-121.936;2023-01-25T03:31:20;9.32;;;4.18;;
22332;SDS011;11334;36.986;-121.936;2023-01-25T03:33:46;15.40;;;4.57;;
22332;SDS011;11334;36.986;-121.936;2023-01-25T03:36:14;8.20;;;3.67;;
22332;SDS011;11334;36.986;-121.936;2023-01-25T03:38:40;10.18;;;4.32;;
22332;SDS011;11334;36.986;-121.936;2023-01-25T03:41:07;9.75;;;4.75;;
22332;SDS011;11334;36.986;-121.936;2023-01-25T03:43:33;8.73;;;4.30;;
22332;SDS011;11334;36.986;-121.936;2023-01-25T03:46:00;6.13;;;3.58;;
22332;SDS011;11334;36.986;-121.936;2023-01-25T03:48:27;8.43;;;4.20;;
22332;SDS011;11334;36.986;-121.936;2023-01-25T03:50:58;12.32;;;4.13;;
22332;SDS011;11334;36.986;-121.936;2023-01-25T03:53:25;8.10;;;3.55;;
22332;SDS011;11334;36.986;-121.936;2023-01-25T03:56:01;7.80;;;3.67;;
22332;SDS011;11334;36.986;-121.936;2023-01-25T03:58:30;8.73;;;3.42;;
22332;SDS011;11334;36.986;-121.936;2023-01-25T04:00:57;11.18;;;3.90;;
22332;SDS011;11334;36.986;-121.936;2023-01-25T04:03:25;7.15;;;3.60;;
22332;SDS011;11334;36.986;-121.936;2023-01-25T04:05:52;8.38;;;3.63;;
22332;SDS011;11334;36.986;-121.936;2023-01-25T04:08:20;9.15;;;3.65;;
22332;SDS011;11334;36.986;-121.936;2023-01-25T04:10:50;5.80;;;3.10;;
22332;SDS011;11334;36.986;-121.936;2023-01-25T04:13:18;6.07;;;3.50;;
22332;SDS011;11334;36.986;-121.936;2023-01-25T04:15:45;6.85;;;3.45;;
22332;SDS011;11334;36.986;-121.936;2023-01-25T04:18:12;6.28;;;4.13;;
22332;SDS011;11334;36.986;-121.936;2023-01-25T04:20:38;6.50;;;3.97;;
22332;SDS011;11334;36.986;-121.936;2023-01-25T04:23:04;5.38;;;3.78;;
22332;SDS011;11334;36.986;-121.936;2023-01-25T04:25:34;5.97;;;3.80;;
22332;SDS011;11334;36.986;-121.936;2023-01-25T04:28:01;7.65;;;3.58;;
22332;SDS011;11334;36.986;-121.936;2023-01-25T04:30:27;8.27;;;3.30;;
22332;SDS011;11334;36.986;-121.936;2023-01-25T04:32:54;5.72;;;3.25;;
22332;SDS011;11334;36.986;-121.936;2023-01-25T04:35:20;8.18;;;2.75;;
22332;SDS011;11334;36.986;-121.936;2023-01-25T04:37:56;4.00;;;2.85;;
22332;SDS011;11334;36.986;-121.936;2023-01-25T04:40:23;6.32;;;2.80;;
22332;SDS011;11334;36.986;-121.936;2023-01-25T04:42:50;7.43;;;2.60;;
22332;SDS011;11334;36.986;-121.936;2023-01-25T04:45:16;7.38;;;3.15;;
22332;SDS011;11334;36.986;-121.936;2023-01-25T04:47:42;5.20;;;3.08;;
22332;SDS011;11334;36.986;-121.936;2023-01-25T04:50:09;4.88;;;2.65;;
22332;SDS011;11334;36.986;-121.936;2023-01-25T04:52:35;5.80;;;2.80;;
22332;SDS011;11334;36.986;-121.936;2023-01-25T04:55:02;8.50;;;2.92;;
22332;SDS011;11334;36.986;-121.936;2023-01-25T04:57:28;7.80;;;3.35;;
22332;SDS011;11334;36.986;-121.936;2023-01-25T04:59:54;6.68;;;3.03;;
22332;SDS011;11334;36.986;-121.936;2023-01-25T05:02:21;4.47;;;3.15;;
22332;SDS011;11334;36.986;-121.936;2023-01-25T05:04:48;4.40;;;2.90;;
22332;SDS011;11334;36.986;-121.936;2023-01-25T05:07:14;8.88;;;3.33;;
22332;SDS011;11334;36.986;-121.936;2023-01-25T05:09:40;7.95;;;3.20;;
22332;SDS011;11334;36.986;-121.936;2023-01-25T05:12:06;8.57;;;4.15;;
22332;SDS011;11334;36.986;-121.936;2023-01-25T05:14:38;8.18;;;3.30;;
22332;SDS011;11334;36.986;-121.936;2023-01-25T05:17:05;9.43;;;3.95;;
22332;SDS011;11334;36.986;-121.936;2023-01-25T05:19:32;7.03;;;3.88;;
22332;SDS011;11334;36.986;-121.936;2023-01-25T05:21:59;5.07;;;3.75;;
22332;SDS011;11334;36.986;-121.936;2023-01-25T05:24:28;8.55;;;3.90;;
22332;SDS011;11334;36.986;-121.936;2023-01-25T05:26:56;6.85;;;3.33;;
22332;SDS011;11334;36.986;-121.936;2023-01-25T05:29:28;7.60;;;2.97;;
22332;SDS011;11334;36.986;-121.936;2023-01-25T05:31:57;5.10;;;2.53;;
22332;SDS011;11334;36.986;-121.936;2023-01-25T05:34:24;4.35;;;3.10;;
22332;SDS011;11334;36.986;-121.936;2023-01-25T05:36:50;7.22;;;3.38;;
22332;SDS011;11334;36.986;-121.936;2023-01-25T05:39:16;6.20;;;3.53;;
22332;SDS011;11334;36.986;-121.936;2023-01-25T05:41:43;6.78;;;3.58;;
22332;SDS011;11334;36.986;-121.936;2023-01-25T05:44:09;6.35;;;3.03;;
22332;SDS011;11334;36.986;-121.936;2023-01-25T05:46:35;8.80;;;3.72;;
22332;SDS011;11334;36.986;-121.936;2023-01-25T05:49:01;5.90;;;3.15;;
22332;SDS011;11334;36.986;-121.936;2023-01-25T05:51:28;7.03;;;2.95;;
22332;SDS011;11334;36.986;-121.936;2023-01-25T05:53:54;5.07;;;3.22;;
22332;SDS011;11334;36.986;-121.936;2023-01-25T05:56:21;6.93;;;3.97;;
22332;SDS011;11334;36.986;-121.936;2023-01-25T05:58:51;6.68;;;3.38;;
22332;SDS011;11334;36.986;-121.936;2023-01-25T06:01:20;5.07;;;2.63;;
22332;SDS011;11334;36.986;-121.936;2023-01-25T06:03:47;5.70;;;2.53;;
22332;SDS011;11334;36.986;-121.936;2023-01-25T06:06:14;5.13;;;2.63;;
22332;SDS011;11334;36.986;-121.936;2023-01-25T06:08:40;6.15;;;2.60;;
22332;SDS011;11334;36.986;-121.936;2023-01-25T06:11:07;5.25;;;2.35;;
22332;SDS011;11334;36.986;-121.936;2023-01-25T06:13:34;6.38;;;2.67;;
22332;SDS011;11334;36.986;-121.936;2023-01-25T06:16:00;6.75;;;2.53;;
22332;SDS011;11334;36.986;-121.936;2023-01-25T06:18:28;6.95;;;2.75;;
22332;SDS011;11334;36.986;-121.936;2023-01-25T06:20:56;6.43;;;2.35;;
22332;SDS011;11334;36.986;-121.936;2023-01-25T06:23:23;4.03;;;2.25;;
22332;SDS011;11334;36.986;-121.936;2023-01-25T06:25:50;6.43;;;2.53;;
22332;SDS011;11334;36.986;-121.936;2023-01-25T06:28:20;5.65;;;2.60;;
22332;SDS011;11334;36.986;-121.936;2023-01-25T06:30:46;5.95;;;2.92;;
22332;SDS011;11334;36.986;-121.936;2023-01-25T06:33:12;5.00;;;2.13;;
22332;SDS011;11334;36.986;-121.936;2023-01-25T06:35:38;5.00;;;2.50;;
22332;SDS011;11334;36.986;-121.936;2023-01-25T06:38:05;4.72;;;2.30;;
22332;SDS011;11334;36.986;-121.936;2023-01-25T06:40:31;8.73;;;3.03;;
22332;SDS011;11334;36.986;-121.936;2023-01-25T06:43:05;5.20;;;2.35;;
22332;SDS011;11334;36.986;-121.936;2023-01-25T06:45:35;6.07;;;2.35;;
22332;SDS011;11334;36.986;-121.936;2023-01-25T06:48:01;4.05;;;2.80;;
22332;SDS011;11334;36.986;-121.936;2023-01-25T06:50:28;6.38;;;2.65;;
22332;SDS011;11334;36.986;-121.936;2023-01-25T06:52:54;3.92;;;2.67;;
22332;SDS011;11334;36.986;-121.936;2023-01-25T06:55:21;3.38;;;2.20;;
22332;SDS011;11334;36.986;-121.936;2023-01-25T06:57:48;4.55;;;2.60;;
22332;SDS011;11334;36.986;-121.936;2023-01-25T07:00:14;3.72;;;2.78;;
22332;SDS011;11334;36.986;-121.936;2023-01-25T07:02:41;5.05;;;2.83;;
22332;SDS011;11334;36.986;-121.936;2023-01-25T07:05:07;2.67;;;2.35;;
22332;SDS011;11334;36.986;-121.936;2023-01-25T07:07:34;6.13;;;2.55;;
22332;SDS011;11334;36.986;-121.936;2023-01-25T07:10:00;7.78;;;2.50;;
22332;SDS011;11334;36.986;-121.936;2023-01-25T07:12:29;3.72;;;2.35;;
22332;SDS011;11334;36.986;-121.936;2023-01-25T07:14:56;5.95;;;2.83;;
22332;SDS011;11334;36.986;-121.936;2023-01-25T07:17:22;5.55;;;2.38;;
22332;SDS011;11334;36.986;-121.936;2023-01-25T07:19:48;6.25;;;2.20;;
22332;SDS011;11334;36.986;-121.936;2023-01-25T07:22:14;6.90;;;2.92;;
22332;SDS011;11334;36.986;-121.936;2023-01-25T07:24:42;6.38;;;2.50;;
22332;SDS011;11334;36.986;-121.936;2023-01-25T07:27:14;3.83;;;2.30;;
22332;SDS011;11334;36.986;-121.936;2023-01-25T07:29:41;2.50;;;2.30;;
22332;SDS011;11334;36.986;-121.936;2023-01-25T07:32:07;3.70;;;2.20;;
22332;SDS011;11334;36.986;-121.936;2023-01-25T07:34:36;5.78;;;2.20;;
22332;SDS011;11334;36.986;-121.936;2023-01-25T07:37:03;6.50;;;2.55;;
22332;SDS011;11334;36.986;-121.936;2023-01-25T07:39:29;2.92;;;2.35;;
22332;SDS011;11334;36.986;-121.936;2023-01-25T07:41:55;3.10;;;1.85;;
22332;SDS011;11334;36.986;-121.936;2023-01-25T07:44:21;3.53;;;1.98;;
22332;SDS011;11334;36.986;-121.936;2023-01-25T07:46:48;4.93;;;2.30;;
22332;SDS011;11334;36.986;-121.936;2023-01-25T07:49:14;3.40;;;2.55;;
22332;SDS011;11334;36.986;-121.936;2023-01-25T07:51:40;3.85;;;2.38;;
22332;SDS011;11334;36.986;-121.936;2023-01-25T07:54:09;6.65;;;2.47;;
22332;SDS011;11334;36.986;-121.936;2023-01-25T07:56:36;4.95;;;2.55;;
22332;SDS011;11334;36.986;-121.936;2023-01-25T07:59:04;4.88;;;2.30;;
22332;SDS011;11334;36.986;-121.936;2023-01-25T08:01:34;2.42;;;2.00;;
22332;SDS011;11334;36.986;-121.936;2023-01-25T08:04:01;4.60;;;2.20;;
22332;SDS011;11334;36.986;-121.936;2023-01-25T08:06:32;4.80;;;2.20;;
22332;SDS011;11334;36.986;-121.936;2023-01-25T08:09:03;5.22;;;2.10;;
22332;SDS011;11334;36.986;-121.936;2023-01-25T08:11:32;4.03;;;2.10;;
22332;SDS011;11334;36.986;-121.936;2023-01-25T08:13:59;2.85;;;1.95;;
22332;SDS011;11334;36.986;-121.936;2023-01-25T08:16:27;5.50;;;2.28;;
22332;SDS011;11334;36.986;-121.936;2023-01-25T08:18:56;3.38;;;1.90;;
22332;SDS011;11334;36.986;-121.936;2023-01-25T08:21:24;6.40;;;2.58;;
22332;SDS011;11334;36.986;-121.936;2023-01-25T08:23:55;2.10;;;1.67;;
22332;SDS011;11334;36.986;-121.936;2023-01-25T08:26:22;3.28;;;2.00;;
22332;SDS011;11334;36.986;-121.936;2023-01-25T08:28:49;2.58;;;1.88;;
22332;SDS011;11334;36.986;-121.936;2023-01-25T08:31:19;2.90;;;2.00;;
22332;SDS011;11334;36.986;-121.936;2023-01-25T08:33:47;6.78;;;2.25;;
22332;SDS011;11334;36.986;-121.936;2023-01-25T08:36:14;4.95;;;2.40;;
22332;SDS011;11334;36.986;-121.936;2023-01-25T08:38:43;2.95;;;1.90;;
22332;SDS011;11334;36.986;-121.936;2023-01-25T08:41:11;4.95;;;2.30;;
22332;SDS011;11334;36.986;-121.936;2023-01-25T08:43:43;3.47;;;3.08;;
22332;SDS011;11334;36.986;-121.936;2023-01-25T08:46:10;3.45;;;2.50;;
22332;SDS011;11334;36.986;-121.936;2023-01-25T08:48:37;5.90;;;2.33;;
22332;SDS011;11334;36.986;-121.936;2023-01-25T08:51:04;3.50;;;2.30;;
22332;SDS011;11334;36.986;-121.936;2023-01-25T08:53:33;4.28;;;2.38;;
22332;SDS011;11334;36.986;-121.936;2023-01-25T08:56:03;4.25;;;2.20;;
22332;SDS011;11334;36.986;-121.936;2023-01-25T08:58:38;2.42;;;1.83;;
22332;SDS011;11334;36.986;-121.936;2023-01-25T09:01:06;4.20;;;1.85;;
22332;SDS011;11334;36.986;-121.936;2023-01-25T09:03:34;2.88;;;1.60;;
22332;SDS011;11334;36.986;-121.936;2023-01-25T09:06:02;2.80;;;1.92;;
22332;SDS011;11334;36.986;-121.936;2023-01-25T09:08:28;3.63;;;2.05;;
22332;SDS011;11334;36.986;-121.936;2023-01-25T09:10:54;2.60;;;1.67;;
22332;SDS011;11334;36.986;-121.936;2023-01-25T09:13:32;3.08;;;1.65;;
22332;SDS011;11334;36.986;-121.936;2023-01-25T09:15:59;2.40;;;1.55;;
22332;SDS011;11334;36.986;-121.936;2023-01-25T09:18:26;3.88;;;2.20;;
22332;SDS011;11334;36.986;-121.936;2023-01-25T09:20:53;3.67;;;1.83;;
22332;SDS011;11334;36.986;-121.936;2023-01-25T09:23:20;2.65;;;2.03;;
22332;SDS011;11334;36.986;-121.936;2023-01-25T09:25:48;9.52;;;2.88;;
22332;SDS011;11334;36.986;-121.936;2023-01-25T09:28:25;3.17;;;1.50;;
22332;SDS011;11334;36.986;-121.936;2023-01-25T09:31:01;1.70;;;1.55;;
22332;SDS011;11334;36.986;-121.936;2023-01-25T09:33:31;2.05;;;1.65;;
22332;SDS011;11334;36.986;-121.936;2023-01-25T09:36:00;2.05;;;1.48;;
22332;SDS011;11334;36.986;-121.936;2023-01-25T09:38:27;2.05;;;1.52;;
22332;SDS011;11334;36.986;-121.936;2023-01-25T09:46:18;3.42;;;1.60;;
22332;SDS011;11334;36.986;-121.936;2023-01-25T09:54:44;1.50;;;1.40;;
22332;SDS011;11334;36.986;-121.936;2023-01-25T09:57:20;8.75;;;2.00;;
22332;SDS011;11334;36.986;-121.936;2023-01-25T09:59:50;7.45;;;1.85;;
22332;SDS011;11334;36.986;-121.936;2023-01-25T10:02:30;2.53;;;1.67;;
22332;SDS011;11334;36.986;-121.936;2023-01-25T10:05:18;2.45;;;1.70;;
22332;SDS011;11334;36.986;-121.936;2023-01-25T10:08:09;1.80;;;1.60;;
22332;SDS011;11334;36.986;-121.936;2023-01-25T10:10:45;2.58;;;1.98;;
22332;SDS011;11334;36.986;-121.936;2023-01-25T10:13:18;5.47;;;2.55;;
22332;SDS011;11334;36.986;-121.936;2023-01-25T10:15:52;4.53;;;1.85;;
22332;SDS011;11334;36.986;-121.936;2023-01-25T10:21:18;2.20;;;1.63;;
22332;SDS011;11334;36.986;-121.936;2023-01-25T10:26:27;7.60;;;2.10;;
22332;SDS011;11334;36.986;-121.936;2023-01-25T10:31:50;5.45;;;1.80;;
22332;SDS011;11334;36.986;-121.936;2023-01-25T10:34:26;2.65;;;1.67;;
22332;SDS011;11334;36.986;-121.936;2023-01-25T10:37:00;2.20;;;2.00;;
22332;SDS011;11334;36.986;-121.936;2023-01-25T10:39:29;2.28;;;1.77;;
22332;SDS011;11334;36.986;-121.936;2023-01-25T10:42:05;4.22;;;2.05;;
22332;SDS011;11334;36.986;-121.936;2023-01-25T10:44:36;3.88;;;1.65;;
22332;SDS011;11334;36.986;-121.936;2023-01-25T10:47:04;4.28;;;1.75;;
22332;SDS011;11334;36.986;-121.936;2023-01-25T10:49:54;3.03;;;1.58;;
22332;SDS011;11334;36.986;-121.936;2023-01-25T10:52:25;1.58;;;1.45;;
22332;SDS011;11334;36.986;-121.936;2023-01-25T10:55:18;3.63;;;1.42;;
22332;SDS011;11334;36.986;-121.936;2023-01-25T10:57:53;3.22;;;1.60;;
22332;SDS011;11334;36.986;-121.936;2023-01-25T11:00:35;3.55;;;1.80;;
22332;SDS011;11334;36.986;-121.936;2023-01-25T11:03:04;3.40;;;1.80;;
22332;SDS011;11334;36.986;-121.936;2023-01-25T11:05:36;5.00;;;1.58;;
22332;SDS011;11334;36.986;-121.936;2023-01-25T11:10:49;3.92;;;1.88;;
22332;SDS011;11334;36.986;-121.936;2023-01-25T11:15:49;2.15;;;1.35;;
22332;SDS011;11334;36.986;-121.936;2023-01-25T11:18:22;2.35;;;1.67;;
22332;SDS011;11334;36.986;-121.936;2023-01-25T11:21:02;2.55;;;1.55;;
22332;SDS011;11334;36.986;-121.936;2023-01-25T11:23:56;3.45;;;1.77;;
22332;SDS011;11334;36.986;-121.936;2023-01-25T11:26:24;2.30;;;1.67;;
22332;SDS011;11334;36.986;-121.936;2023-01-25T11:29:04;4.03;;;1.50;;
22332;SDS011;11334;36.986;-121.936;2023-01-25T11:31:32;2.90;;;1.42;;
22332;SDS011;11334;36.986;-121.936;2023-01-25T11:33:59;2.85;;;1.60;;
22332;SDS011;11334;36.986;-121.936;2023-01-25T11:36:32;3.17;;;1.80;;
22332;SDS011;11334;36.986;-121.936;2023-01-25T11:39:17;4.32;;;2.03;;
22332;SDS011;11334;36.986;-121.936;2023-01-25T11:50:46;2.97;;;1.60;;
22332;SDS011;11334;36.986;-121.936;2023-01-25T11:58:53;2.58;;;1.73;;
22332;SDS011;11334;36.986;-121.936;2023-01-25T12:01:25;2.67;;;1.65;;
22332;SDS011;11334;36.986;-121.936;2023-01-25T12:04:37;5.35;;;1.63;;
22332;SDS011;11334;36.986;-121.936;2023-01-25T12:15:12;5.15;;;2.03;;
22332;SDS011;11334;36.986;-121.936;2023-01-25T12:23:53;9.20;;;2.08;;
22332;SDS011;11334;36.986;-121.936;2023-01-25T12:29:24;4.15;;;2.03;;
22332;SDS011;11334;36.986;-121.936;2023-01-25T12:34:29;4.15;;;1.80;;
22332;SDS011;11334;36.986;-121.936;2023-01-25T12:37:23;5.63;;;1.85;;
22332;SDS011;11334;36.986;-121.936;2023-01-25T12:39:57;2.83;;;1.77;;
22332;SDS011;11334;36.986;-121.936;2023-01-25T12:42:30;4.60;;;1.63;;
22332;SDS011;11334;36.986;-121.936;2023-01-25T12:48:00;2.78;;;1.92;;
22332;SDS011;11334;36.986;-121.936;2023-01-25T12:50:37;3.90;;;2.58;;
22332;SDS011;11334;36.986;-121.936;2023-01-25T12:55:48;2.17;;;1.65;;
22332;SDS011;11334;36.986;-121.936;2023-01-25T13:06:30;3.10;;;1.90;;
22332;SDS011;11334;36.986;-121.936;2023-01-25T13:09:21;2.85;;;1.85;;
22332;SDS011;11334;36.986;-121.936;2023-01-25T13:12:03;4.10;;;2.00;;
22332;SDS011;11334;36.986;-121.936;2023-01-25T13:14:34;5.03;;;2.30;;
22332;SDS011;11334;36.986;-121.936;2023-01-25T13:17:35;5.03;;;1.70;;
22332;SDS011;11334;36.986;-121.936;2023-01-25T13:19:56;5.20;;;2.40;;
22332;SDS011;11334;36.986;-121.936;2023-01-25T13:25:29;7.55;;;2.25;;
22332;SDS011;11334;36.986;-121.936;2023-01-25T13:39:52;7.65;;;2.47;;
22332;SDS011;11334;36.986;-121.936;2023-01-25T13:45:35;6.40;;;2.85;;
22332;SDS011;11334;36.986;-121.936;2023-01-25T13:47:58;5.30;;;2.33;;
22332;SDS011;11334;36.986;-121.936;2023-01-25T13:50:38;4.53;;;2.17;;
22332;SDS011;11334;36.986;-121.936;2023-01-25T13:55:41;5.68;;;2.30;;
22332;SDS011;11334;36.986;-121.936;2023-01-25T13:58:24;5.53;;;2.45;;
22332;SDS011;11334;36.986;-121.936;2023-01-25T14:00:56;4.53;;;2.45;;
22332;SDS011;11334;36.986;-121.936;2023-01-25T14:03:29;11.98;;;3.17;;
22332;SDS011;11334;36.986;-121.936;2023-01-25T14:05:59;5.95;;;2.88;;
22332;SDS011;11334;36.986;-121.936;2023-01-25T14:08:33;7.47;;;3.25;;
22332;SDS011;11334;36.986;-121.936;2023-01-25T14:10:59;8.88;;;2.63;;
22332;SDS011;11334;36.986;-121.936;2023-01-25T14:13:26;10.45;;;3.50;;
22332;SDS011;11334;36.986;-121.936;2023-01-25T14:15:59;12.18;;;3.10;;
22332;SDS011;11334;36.986;-121.936;2023-01-25T14:18:32;8.60;;;3.13;;
22332;SDS011;11334;36.986;-121.936;2023-01-25T14:23:35;7.25;;;2.47;;
22332;SDS011;11334;36.986;-121.936;2023-01-25T14:26:01;7.28;;;2.88;;
22332;SDS011;11334;36.986;-121.936;2023-01-25T14:28:28;4.78;;;2.42;;
22332;SDS011;11334;36.986;-121.936;2023-01-25T14:30:55;6.57;;;2.63;;
22332;SDS011;11334;36.986;-121.936;2023-01-25T14:33:31;7.22;;;2.50;;
22332;SDS011;11334;36.986;-121.936;2023-01-25T14:36:08;5.40;;;2.60;;
22332;SDS011;11334;36.986;-121.936;2023-01-25T14:38:39;5.53;;;2.08;;
22332;SDS011;11334;36.986;-121.936;2023-01-25T14:43:52;4.45;;;2.22;;
22332;SDS011;11334;36.986;-121.936;2023-01-25T14:46:27;2.65;;;2.33;;
22332;SDS011;11334;36.986;-121.936;2023-01-25T14:51:50;5.22;;;2.33;;
22332;SDS011;11334;36.986;-121.936;2023-01-25T14:54:23;3.25;;;1.90;;
22332;SDS011;11334;36.986;-121.936;2023-01-25T14:56:54;3.70;;;1.75;;
22332;SDS011;11334;36.986;-121.936;2023-01-25T14:59:30;4.20;;;2.13;;
22332;SDS011;11334;36.986;-121.936;2023-01-25T15:05:06;2.15;;;1.67;;
22332;SDS011;11334;36.986;-121.936;2023-01-25T15:07:49;4.80;;;1.77;;
22332;SDS011;11334;36.986;-121.936;2023-01-25T15:10:32;3.22;;;2.22;;
22332;SDS011;11334;36.986;-121.936;2023-01-25T15:13:01;2.92;;;1.48;;
22332;SDS011;11334;36.986;-121.936;2023-01-25T15:15:30;4.32;;;1.92;;
22332;SDS011;11334;36.986;-121.936;2023-01-25T15:17:58;4.53;;;1.80;;
22332;SDS011;11334;36.986;-121.936;2023-01-25T15:23:03;4.15;;;1.90;;
22332;SDS011;11334;36.986;-121.936;2023-01-25T15:25:57;2.72;;;1.73;;
22332;SDS011;11334;36.986;-121.936;2023-01-25T15:28:26;4.55;;;2.10;;
22332;SDS011;11334;36.986;-121.936;2023-01-25T15:30:58;3.67;;;1.70;;
22332;SDS011;11334;36.986;-121.936;2023-01-25T15:33:26;2.97;;;2.22;;
22332;SDS011;11334;36.986;-121.936;2023-01-25T15:35:54;3.28;;;1.98;;
22332;SDS011;11334;36.986;-121.936;2023-01-25T15:38:20;5.00;;;2.60;;
22332;SDS011;11334;36.986;-121.936;2023-01-25T15:40:48;4.65;;;2.05;;
22332;SDS011;11334;36.986;-121.936;2023-01-25T15:43:17;6.40;;;2.28;;
22332;SDS011;11334;36.986;-121.936;2023-01-25T15:45:47;8.95;;;2.70;;
22332;SDS011;11334;36.986;-121.936;2023-01-25T15:48:16;4.68;;;2.45;;
22332;SDS011;11334;36.986;-121.936;2023-01-25T15:50:54;4.25;;;2.28;;
22332;SDS011;11334;36.986;-121.936;2023-01-25T15:53:22;3.60;;;2.70;;
22332;SDS011;11334;36.986;-121.936;2023-01-25T15:55:50;6.43;;;2.42;;
22332;SDS011;11334;36.986;-121.936;2023-01-25T15:58:22;6.53;;;2.53;;
22332;SDS011;11334;36.986;-121.936;2023-01-25T16:00:51;9.15;;;3.67;;
22332;SDS011;11334;36.986;-121.936;2023-01-25T16:03:17;5.50;;;2.60;;
22332;SDS011;11334;36.986;-121.936;2023-01-25T16:05:47;9.18;;;2.63;;
22332;SDS011;11334;36.986;-121.936;2023-01-25T16:08:17;3.75;;;2.15;;
22332;SDS011;11334;36.986;-121.936;2023-01-25T16:10:45;4.95;;;2.25;;
22332;SDS011;11334;36.986;-121.936;2023-01-25T16:13:11;4.10;;;2.10;;
22332;SDS011;11334;36.986;-121.936;2023-01-25T16:15:38;4.30;;;2.75;;
22332;SDS011;11334;36.986;-121.936;2023-01-25T16:18:05;4.28;;;2.47;;